• Join FlightAware (Why Join?)
  • Login
  • US Flag 
02:15AM EST


 

Airport Tracker/Info


-or-


 

Live Flight TrackerFlight Track Log ✈ N45EJ ✈ 04-Oct-2013 ✈ KPWK - KTVC

Flight Track Log - Related Links

Times and Time Zones

All times are in EDT time to prevent confusion due to time zone crossing. See the N45EJ flight status page for this flight to view local times or setup timezone preferences in your user account.

Time Position Orientation Groundspeed Altitude Reporting Facility
EDT Latitude Longitude Course Direction KTS MPH feet Rate Location/Type
08:12PM 42.0925 -87.8753 32° Northeast 187 215 1,700  Level Chicago Center
08:13PM 42.1356 -87.8394 32° Northeast 194 223 2,000 600 Climbing Chicago Center
08:14PM 42.2031 -87.8164 14° North 234 269 3,000 1,920 Climbing Chicago Center
08:15PM 42.2850 -87.7886 14° North 295 339 6,100 3,300 Climbing Chicago Center
08:16PM 42.3725 -87.7892 360° North 289 333 9,900 3,180 Climbing Chicago Center
08:17PM 42.4514 -87.7836 North 285 328 12,700 2,520 Climbing Chicago Center
08:18PM 42.5358 -87.7717 North 308 354 15,200 2,400 Climbing Chicago Center
08:19PM 42.6392 -87.7203 20° North 330 380 17,700 2,100 Climbing Chicago Center
08:20PM 42.7283 -87.6719 22° Northeast 343 395 19,600 1,800 Climbing Chicago Center
08:21PM 42.8239 -87.6200 22° Northeast 365 420 21,500 1,620 Climbing Chicago Center
08:22PM 42.9181 -87.5547 27° Northeast 381 438 23,000 720 Climbing Chicago Center
08:23PM 43.0122 -87.4528 38° Northeast 426 490 23,000  Level Chicago Center
08:24PM 43.1156 -87.3458 37° Northeast 435 501 23,000  Level Chicago Center
08:25PM 43.2144 -87.2450 37° Northeast 441 507 23,000  Level Chicago Center
08:26PM 43.3125 -87.1411 38° Northeast 442 509 23,000  Level Chicago Center
08:27PM 43.4125 -87.0356 37° Northeast 450 518 23,000  Level Chicago Center
08:28PM 43.5328 -86.9089 37° Northeast 453 521 23,000  Level Chicago Center
08:30PM 43.6328 -86.7994 38° Northeast 457 526 23,000 -120 Level Chicago Center
08:30PM 43.6933 -86.7339 38° Northeast 458 527 22,900 -480 Descending Minneapolis Center
08:31PM 43.7944 -86.6256 38° Northeast 459 528 22,300 -1,020 Descending Minneapolis Center
08:32PM 43.8969 -86.5139 38° Northeast 467 537 20,900 -1,860 Descending Minneapolis Center
08:33PM 43.9833 -86.4086 41° Northeast 419 482 18,600 -2,520 Descending Minneapolis Center
08:34PM 44.0600 -86.3008 45° Northeast 393 452 15,800 -3,000 Descending Minneapolis Center
08:35PM 44.1414 -86.1875 45° Northeast 383 441 12,500 -2,640 Descending Minneapolis Center
08:36PM 44.2122 -86.0872 45° Northeast 369 425 10,400 -1,920 Descending Minneapolis Center
08:37PM 44.2761 -85.9969 45° Northeast 336 387 8,600 -1,500 Descending Minneapolis Center
08:38PM 44.3367 -85.9117 45° Northeast 316 364 7,400 -1,620 Descending Minneapolis Center
08:39PM 44.4031 -85.8161 46° Northeast 295 339 5,300 -1,860 Descending Minneapolis Center
08:40PM 44.4542 -85.7433 45° Northeast 274 315 3,700 -840 Descending Minneapolis Center
08:41PM 44.4994 -85.6803 45° Northeast 244 281 3,600 -60 Descending Minneapolis Center
08:42PM 44.5414 -85.6194 46° Northeast 223 257 3,600 -540 Level Minneapolis Center
08:44PM 44.6347 -85.6022 42° Northeast  Level Estimated
08:45PM 44.6561 -85.5881 42° Northeast 202 232 2,100  Level Minneapolis Center
08:46PM 44.6967 -85.5872 North 174 200 1,400 -540 Descending Minneapolis Center
08:47PM 44.7275 -85.5867 North 156 180 1,000 -420 Descending Minneapolis Center